sensor_id;sensor_type;location;lat;lon;timestamp;P1;durP1;ratioP1;P2;durP2;ratioP2
19149;SDS011;9707;49.158;8.632;2023-02-11T00:00:18;18.70;;;13.38;;
19149;SDS011;9707;49.158;8.632;2023-02-11T00:02:44;19.85;;;13.93;;
19149;SDS011;9707;49.158;8.632;2023-02-11T00:05:09;20.52;;;14.00;;
19149;SDS011;9707;49.158;8.632;2023-02-11T00:07:35;19.48;;;13.68;;
19149;SDS011;9707;49.158;8.632;2023-02-11T00:10:01;22.27;;;14.88;;
19149;SDS011;9707;49.158;8.632;2023-02-11T00:12:27;21.10;;;14.48;;
19149;SDS011;9707;49.158;8.632;2023-02-11T00:14:53;23.23;;;14.57;;
19149;SDS011;9707;49.158;8.632;2023-02-11T00:17:18;20.85;;;14.18;;
19149;SDS011;9707;49.158;8.632;2023-02-11T00:19:43;20.40;;;13.50;;
19149;SDS011;9707;49.158;8.632;2023-02-11T00:22:08;19.30;;;14.13;;
19149;SDS011;9707;49.158;8.632;2023-02-11T00:24:34;20.15;;;13.57;;
19149;SDS011;9707;49.158;8.632;2023-02-11T00:27:00;20.15;;;13.30;;
19149;SDS011;9707;49.158;8.632;2023-02-11T00:29:25;21.75;;;14.10;;
19149;SDS011;9707;49.158;8.632;2023-02-11T00:31:51;22.63;;;14.88;;
19149;SDS011;9707;49.158;8.632;2023-02-11T00:34:16;22.25;;;14.30;;
19149;SDS011;9707;49.158;8.632;2023-02-11T00:36:41;20.92;;;12.93;;
19149;SDS011;9707;49.158;8.632;2023-02-11T00:39:06;22.50;;;13.93;;
19149;SDS011;9707;49.158;8.632;2023-02-11T00:41:32;21.08;;;13.70;;
19149;SDS011;9707;49.158;8.632;2023-02-11T00:43:57;20.67;;;13.02;;
19149;SDS011;9707;49.158;8.632;2023-02-11T00:46:23;21.65;;;13.20;;
19149;SDS011;9707;49.158;8.632;2023-02-11T00:48:48;18.17;;;13.10;;
19149;SDS011;9707;49.158;8.632;2023-02-11T00:51:16;18.38;;;12.80;;
19149;SDS011;9707;49.158;8.632;2023-02-11T00:53:41;19.70;;;12.73;;
19149;SDS011;9707;49.158;8.632;2023-02-11T00:56:07;19.08;;;12.82;;
19149;SDS011;9707;49.158;8.632;2023-02-11T00:58:32;18.27;;;13.20;;
19149;SDS011;9707;49.158;8.632;2023-02-11T01:00:57;20.92;;;13.38;;
19149;SDS011;9707;49.158;8.632;2023-02-11T01:03:23;18.63;;;12.80;;
19149;SDS011;9707;49.158;8.632;2023-02-11T01:05:48;18.90;;;12.95;;
19149;SDS011;9707;49.158;8.632;2023-02-11T01:08:14;18.00;;;13.15;;
19149;SDS011;9707;49.158;8.632;2023-02-11T01:10:40;20.05;;;13.60;;
19149;SDS011;9707;49.158;8.632;2023-02-11T01:13:05;19.10;;;12.70;;
19149;SDS011;9707;49.158;8.632;2023-02-11T01:15:31;19.70;;;13.48;;
19149;SDS011;9707;49.158;8.632;2023-02-11T01:17:57;19.60;;;12.73;;
19149;SDS011;9707;49.158;8.632;2023-02-11T01:20:24;20.77;;;13.25;;
19149;SDS011;9707;49.158;8.632;2023-02-11T01:22:51;22.17;;;13.38;;
19149;SDS011;9707;49.158;8.632;2023-02-11T01:25:16;22.38;;;12.57;;
19149;SDS011;9707;49.158;8.632;2023-02-11T01:27:42;19.38;;;13.32;;
19149;SDS011;9707;49.158;8.632;2023-02-11T01:30:08;18.85;;;11.75;;
19149;SDS011;9707;49.158;8.632;2023-02-11T01:32:35;19.13;;;12.30;;
19149;SDS011;9707;49.158;8.632;2023-02-11T01:35:00;20.23;;;12.52;;
19149;SDS011;9707;49.158;8.632;2023-02-11T01:37:26;17.92;;;12.52;;
19149;SDS011;9707;49.158;8.632;2023-02-11T01:39:51;21.15;;;13.25;;
19149;SDS011;9707;49.158;8.632;2023-02-11T01:42:17;19.70;;;13.77;;
19149;SDS011;9707;49.158;8.632;2023-02-11T01:44:44;19.95;;;12.73;;
19149;SDS011;9707;49.158;8.632;2023-02-11T01:47:09;19.85;;;13.43;;
19149;SDS011;9707;49.158;8.632;2023-02-11T01:49:37;20.80;;;13.30;;
19149;SDS011;9707;49.158;8.632;2023-02-11T01:52:07;20.42;;;13.40;;
19149;SDS011;9707;49.158;8.632;2023-02-11T01:54:40;21.15;;;13.52;;
19149;SDS011;9707;49.158;8.632;2023-02-11T01:57:28;23.20;;;14.15;;
19149;SDS011;9707;49.158;8.632;2023-02-11T02:10:56;20.88;;;13.55;;
19149;SDS011;9707;49.158;8.632;2023-02-11T02:13:24;22.27;;;13.88;;
19149;SDS011;9707;49.158;8.632;2023-02-11T02:15:52;20.92;;;13.27;;
19149;SDS011;9707;49.158;8.632;2023-02-11T02:26:32;20.15;;;13.27;;
19149;SDS011;9707;49.158;8.632;2023-02-11T02:34:36;19.50;;;13.15;;
19149;SDS011;9707;49.158;8.632;2023-02-11T02:37:11;17.25;;;11.60;;
19149;SDS011;9707;49.158;8.632;2023-02-11T02:39:42;16.98;;;11.88;;
19149;SDS011;9707;49.158;8.632;2023-02-11T02:42:10;17.73;;;12.10;;
19149;SDS011;9707;49.158;8.632;2023-02-11T02:44:37;17.58;;;12.18;;
19149;SDS011;9707;49.158;8.632;2023-02-11T02:47:03;20.23;;;12.65;;
19149;SDS011;9707;49.158;8.632;2023-02-11T02:49:28;19.55;;;12.60;;
19149;SDS011;9707;49.158;8.632;2023-02-11T03:02:26;18.92;;;13.35;;
19149;SDS011;9707;49.158;8.632;2023-02-11T03:04:56;20.92;;;12.98;;
19149;SDS011;9707;49.158;8.632;2023-02-11T03:10:08;19.13;;;13.55;;
19149;SDS011;9707;49.158;8.632;2023-02-11T03:12:37;19.90;;;13.27;;
19149;SDS011;9707;49.158;8.632;2023-02-11T03:15:05;19.13;;;13.85;;
19149;SDS011;9707;49.158;8.632;2023-02-11T03:17:31;19.80;;;13.73;;
19149;SDS011;9707;49.158;8.632;2023-02-11T03:19:59;19.75;;;13.30;;
19149;SDS011;9707;49.158;8.632;2023-02-11T03:22:28;18.80;;;12.48;;
19149;SDS011;9707;49.158;8.632;2023-02-11T03:25:01;21.05;;;13.13;;
19149;SDS011;9707;49.158;8.632;2023-02-11T03:30:12;18.35;;;12.55;;
19149;SDS011;9707;49.158;8.632;2023-02-11T03:32:47;17.08;;;12.13;;
19149;SDS011;9707;49.158;8.632;2023-02-11T03:35:26;19.92;;;12.82;;
19149;SDS011;9707;49.158;8.632;2023-02-11T03:37:58;17.38;;;13.13;;
19149;SDS011;9707;49.158;8.632;2023-02-11T03:40:28;17.45;;;11.90;;
19149;SDS011;9707;49.158;8.632;2023-02-11T03:43:00;17.08;;;12.05;;
19149;SDS011;9707;49.158;8.632;2023-02-11T03:45:30;18.50;;;11.90;;
19149;SDS011;9707;49.158;8.632;2023-02-11T03:48:05;18.48;;;12.85;;
19149;SDS011;9707;49.158;8.632;2023-02-11T03:50:36;16.25;;;11.88;;
19149;SDS011;9707;49.158;8.632;2023-02-11T03:53:03;17.95;;;12.20;;
19149;SDS011;9707;49.158;8.632;2023-02-11T03:55:30;20.45;;;12.07;;
19149;SDS011;9707;49.158;8.632;2023-02-11T03:57:58;17.73;;;12.57;;
19149;SDS011;9707;49.158;8.632;2023-02-11T04:00:31;19.05;;;11.90;;
19149;SDS011;9707;49.158;8.632;2023-02-11T04:02:58;20.10;;;11.73;;
19149;SDS011;9707;49.158;8.632;2023-02-11T04:05:24;17.27;;;11.68;;
19149;SDS011;9707;49.158;8.632;2023-02-11T04:07:49;18.15;;;11.70;;
19149;SDS011;9707;49.158;8.632;2023-02-11T04:10:16;17.25;;;11.13;;
19149;SDS011;9707;49.158;8.632;2023-02-11T04:12:42;17.48;;;12.18;;
19149;SDS011;9707;49.158;8.632;2023-02-11T04:15:07;19.45;;;13.45;;
19149;SDS011;9707;49.158;8.632;2023-02-11T04:17:32;18.40;;;11.95;;
19149;SDS011;9707;49.158;8.632;2023-02-11T04:19:58;17.10;;;12.60;;
19149;SDS011;9707;49.158;8.632;2023-02-11T04:22:23;16.70;;;11.30;;
19149;SDS011;9707;49.158;8.632;2023-02-11T04:24:49;18.73;;;11.98;;
19149;SDS011;9707;49.158;8.632;2023-02-11T04:27:14;16.60;;;10.75;;
19149;SDS011;9707;49.158;8.632;2023-02-11T04:29:39;17.95;;;11.63;;
19149;SDS011;9707;49.158;8.632;2023-02-11T04:32:05;15.15;;;10.75;;
19149;SDS011;9707;49.158;8.632;2023-02-11T04:34:30;16.35;;;11.65;;
19149;SDS011;9707;49.158;8.632;2023-02-11T04:36:56;17.80;;;11.73;;
19149;SDS011;9707;49.158;8.632;2023-02-11T04:39:21;16.60;;;11.55;;
19149;SDS011;9707;49.158;8.632;2023-02-11T04:41:46;15.82;;;10.57;;
19149;SDS011;9707;49.158;8.632;2023-02-11T04:44:11;18.27;;;11.70;;
19149;SDS011;9707;49.158;8.632;2023-02-11T04:46:37;16.63;;;11.82;;
19149;SDS011;9707;49.158;8.632;2023-02-11T04:49:02;17.75;;;11.63;;
19149;SDS011;9707;49.158;8.632;2023-02-11T04:51:28;18.67;;;12.30;;
19149;SDS011;9707;49.158;8.632;2023-02-11T04:53:53;16.63;;;11.38;;
19149;SDS011;9707;49.158;8.632;2023-02-11T04:56:18;17.80;;;12.23;;
19149;SDS011;9707;49.158;8.632;2023-02-11T04:58:44;19.42;;;13.10;;
19149;SDS011;9707;49.158;8.632;2023-02-11T05:01:10;19.35;;;11.80;;
19149;SDS011;9707;49.158;8.632;2023-02-11T05:03:38;17.40;;;11.90;;
19149;SDS011;9707;49.158;8.632;2023-02-11T05:06:03;17.00;;;11.57;;
19149;SDS011;9707;49.158;8.632;2023-02-11T05:08:29;17.25;;;11.27;;
19149;SDS011;9707;49.158;8.632;2023-02-11T05:10:55;17.48;;;12.00;;
19149;SDS011;9707;49.158;8.632;2023-02-11T05:13:20;16.27;;;10.77;;
19149;SDS011;9707;49.158;8.632;2023-02-11T05:15:46;17.98;;;11.23;;
19149;SDS011;9707;49.158;8.632;2023-02-11T05:18:11;17.65;;;11.98;;
19149;SDS011;9707;49.158;8.632;2023-02-11T05:20:38;14.85;;;11.48;;
19149;SDS011;9707;49.158;8.632;2023-02-11T05:23:04;17.88;;;11.50;;
19149;SDS011;9707;49.158;8.632;2023-02-11T05:25:29;16.20;;;11.38;;
19149;SDS011;9707;49.158;8.632;2023-02-11T05:27:55;17.52;;;11.93;;
19149;SDS011;9707;49.158;8.632;2023-02-11T05:30:20;18.08;;;12.23;;
19149;SDS011;9707;49.158;8.632;2023-02-11T05:32:46;17.92;;;11.52;;
19149;SDS011;9707;49.158;8.632;2023-02-11T05:35:11;17.13;;;11.07;;
19149;SDS011;9707;49.158;8.632;2023-02-11T05:37:36;16.48;;;11.20;;
19149;SDS011;9707;49.158;8.632;2023-02-11T05:40:02;20.08;;;10.70;;
19149;SDS011;9707;49.158;8.632;2023-02-11T05:42:27;15.25;;;10.30;;
19149;SDS011;9707;49.158;8.632;2023-02-11T05:44:53;15.50;;;11.20;;
19149;SDS011;9707;49.158;8.632;2023-02-11T05:47:18;16.88;;;11.27;;
19149;SDS011;9707;49.158;8.632;2023-02-11T05:49:43;17.27;;;11.93;;
19149;SDS011;9707;49.158;8.632;2023-02-11T05:52:08;17.73;;;10.82;;
19149;SDS011;9707;49.158;8.632;2023-02-11T05:54:34;15.10;;;10.98;;
19149;SDS011;9707;49.158;8.632;2023-02-11T05:56:59;14.70;;;10.48;;
19149;SDS011;9707;49.158;8.632;2023-02-11T05:59:24;16.63;;;10.32;;
19149;SDS011;9707;49.158;8.632;2023-02-11T06:01:50;16.88;;;10.90;;
19149;SDS011;9707;49.158;8.632;2023-02-11T06:04:15;16.55;;;10.73;;
19149;SDS011;9707;49.158;8.632;2023-02-11T06:06:40;16.58;;;10.85;;
19149;SDS011;9707;49.158;8.632;2023-02-11T06:09:06;19.33;;;11.68;;
19149;SDS011;9707;49.158;8.632;2023-02-11T06:11:31;18.50;;;11.27;;
19149;SDS011;9707;49.158;8.632;2023-02-11T06:13:59;16.73;;;11.10;;
19149;SDS011;9707;49.158;8.632;2023-02-11T06:16:25;17.70;;;11.38;;
19149;SDS011;9707;49.158;8.632;2023-02-11T06:18:50;16.75;;;10.95;;
19149;SDS011;9707;49.158;8.632;2023-02-11T06:21:15;17.60;;;10.80;;
19149;SDS011;9707;49.158;8.632;2023-02-11T06:23:41;15.85;;;10.73;;
19149;SDS011;9707;49.158;8.632;2023-02-11T06:26:07;15.43;;;10.27;;
19149;SDS011;9707;49.158;8.632;2023-02-11T06:28:39;18.20;;;11.23;;
19149;SDS011;9707;49.158;8.632;2023-02-11T06:31:05;18.33;;;11.73;;
19149;SDS011;9707;49.158;8.632;2023-02-11T06:33:31;15.70;;;11.13;;
19149;SDS011;9707;49.158;8.632;2023-02-11T06:35:56;17.67;;;11.15;;
19149;SDS011;9707;49.158;8.632;2023-02-11T06:38:21;16.38;;;11.52;;
19149;SDS011;9707;49.158;8.632;2023-02-11T06:40:47;17.10;;;10.80;;
19149;SDS011;9707;49.158;8.632;2023-02-11T06:43:13;16.48;;;10.68;;
19149;SDS011;9707;49.158;8.632;2023-02-11T06:45:38;18.10;;;11.30;;
19149;SDS011;9707;49.158;8.632;2023-02-11T06:48:04;16.90;;;10.98;;
19149;SDS011;9707;49.158;8.632;2023-02-11T06:50:29;19.20;;;11.95;;
19149;SDS011;9707;49.158;8.632;2023-02-11T06:52:54;15.25;;;10.55;;
19149;SDS011;9707;49.158;8.632;2023-02-11T06:55:20;17.77;;;11.57;;
19149;SDS011;9707;49.158;8.632;2023-02-11T06:57:45;16.15;;;11.27;;
19149;SDS011;9707;49.158;8.632;2023-02-11T07:00:10;17.58;;;11.63;;
19149;SDS011;9707;49.158;8.632;2023-02-11T07:02:36;19.45;;;11.23;;
19149;SDS011;9707;49.158;8.632;2023-02-11T07:05:01;18.02;;;11.63;;
19149;SDS011;9707;49.158;8.632;2023-02-11T07:07:29;15.63;;;11.18;;
19149;SDS011;9707;49.158;8.632;2023-02-11T07:09:55;16.95;;;11.50;;
19149;SDS011;9707;49.158;8.632;2023-02-11T07:12:21;18.42;;;12.68;;
19149;SDS011;9707;49.158;8.632;2023-02-11T07:14:46;17.88;;;12.18;;
19149;SDS011;9707;49.158;8.632;2023-02-11T07:17:11;18.75;;;12.38;;
19149;SDS011;9707;49.158;8.632;2023-02-11T07:19:36;17.27;;;11.65;;
19149;SDS011;9707;49.158;8.632;2023-02-11T07:22:02;18.08;;;11.45;;
19149;SDS011;9707;49.158;8.632;2023-02-11T07:24:27;16.92;;;11.65;;
19149;SDS011;9707;49.158;8.632;2023-02-11T07:26:52;16.35;;;11.23;;
19149;SDS011;9707;49.158;8.632;2023-02-11T07:29:18;18.13;;;11.35;;
19149;SDS011;9707;49.158;8.632;2023-02-11T07:31:43;21.83;;;12.93;;
19149;SDS011;9707;49.158;8.632;2023-02-11T07:34:08;18.83;;;12.50;;
19149;SDS011;9707;49.158;8.632;2023-02-11T07:36:34;19.35;;;12.57;;
19149;SDS011;9707;49.158;8.632;2023-02-11T07:39:03;18.50;;;13.63;;
19149;SDS011;9707;49.158;8.632;2023-02-11T07:41:28;21.15;;;13.93;;
19149;SDS011;9707;49.158;8.632;2023-02-11T07:43:53;23.58;;;15.00;;
19149;SDS011;9707;49.158;8.632;2023-02-11T07:46:20;22.40;;;15.38;;
19149;SDS011;9707;49.158;8.632;2023-02-11T07:48:48;21.30;;;14.20;;
19149;SDS011;9707;49.158;8.632;2023-02-11T07:51:16;24.60;;;15.70;;
19149;SDS011;9707;49.158;8.632;2023-02-11T07:53:44;21.80;;;14.10;;
19149;SDS011;9707;49.158;8.632;2023-02-11T07:56:10;21.38;;;14.57;;
19149;SDS011;9707;49.158;8.632;2023-02-11T07:58:37;22.63;;;14.63;;
19149;SDS011;9707;49.158;8.632;2023-02-11T08:01:04;21.98;;;14.63;;
19149;SDS011;9707;49.158;8.632;2023-02-11T08:03:30;22.08;;;15.50;;
19149;SDS011;9707;49.158;8.632;2023-02-11T08:05:56;23.08;;;15.38;;
19149;SDS011;9707;49.158;8.632;2023-02-11T08:08:22;18.30;;;13.85;;
19149;SDS011;9707;49.158;8.632;2023-02-11T08:10:51;22.15;;;15.02;;
19149;SDS011;9707;49.158;8.632;2023-02-11T08:13:16;23.52;;;15.07;;
19149;SDS011;9707;49.158;8.632;2023-02-11T08:15:41;25.60;;;16.42;;
19149;SDS011;9707;49.158;8.632;2023-02-11T08:18:06;22.58;;;16.10;;
19149;SDS011;9707;49.158;8.632;2023-02-11T08:20:32;23.15;;;14.90;;
19149;SDS011;9707;49.158;8.632;2023-02-11T08:22:57;23.52;;;15.68;;
19149;SDS011;9707;49.158;8.632;2023-02-11T08:25:23;22.80;;;15.15;;
19149;SDS011;9707;49.158;8.632;2023-02-11T08:27:48;24.15;;;15.43;;
19149;SDS011;9707;49.158;8.632;2023-02-11T08:30:13;22.50;;;15.43;;
19149;SDS011;9707;49.158;8.632;2023-02-11T08:32:39;21.70;;;15.98;;
19149;SDS011;9707;49.158;8.632;2023-02-11T08:35:04;21.55;;;15.48;;
19149;SDS011;9707;49.158;8.632;2023-02-11T08:37:32;22.95;;;15.32;;
19149;SDS011;9707;49.158;8.632;2023-02-11T08:39:57;23.30;;;17.02;;
19149;SDS011;9707;49.158;8.632;2023-02-11T08:42:23;25.17;;;17.40;;
19149;SDS011;9707;49.158;8.632;2023-02-11T08:44:48;25.25;;;16.65;;
19149;SDS011;9707;49.158;8.632;2023-02-11T08:47:13;23.75;;;17.40;;
19149;SDS011;9707;49.158;8.632;2023-02-11T08:49:39;24.38;;;17.30;;
19149;SDS011;9707;49.158;8.632;2023-02-11T08:52:06;27.00;;;16.35;;
19149;SDS011;9707;49.158;8.632;2023-02-11T08:54:32;23.77;;;16.30;;
19149;SDS011;9707;49.158;8.632;2023-02-11T08:56:57;28.85;;;16.60;;
19149;SDS011;9707;49.158;8.632;2023-02-11T08:59:22;24.92;;;17.15;;
19149;SDS011;9707;49.158;8.632;2023-02-11T09:01:48;25.52;;;16.58;;
19149;SDS011;9707;49.158;8.632;2023-02-11T09:04:13;23.27;;;16.75;;
19149;SDS011;9707;49.158;8.632;2023-02-11T09:06:39;25.80;;;17.75;;
19149;SDS011;9707;49.158;8.632;2023-02-11T09:09:09;23.65;;;16.33;;
19149;SDS011;9707;49.158;8.632;2023-02-11T09:11:35;25.58;;;16.83;;
19149;SDS011;9707;49.158;8.632;2023-02-11T09:14:01;29.58;;;17.95;;
19149;SDS011;9707;49.158;8.632;2023-02-11T09:16:29;25.00;;;16.33;;
19149;SDS011;9707;49.158;8.632;2023-02-11T09:18:57;26.10;;;17.58;;
19149;SDS011;9707;49.158;8.632;2023-02-11T09:21:23;28.63;;;17.95;;
19149;SDS011;9707;49.158;8.632;2023-02-11T09:23:49;28.30;;;17.67;;
19149;SDS011;9707;49.158;8.632;2023-02-11T09:26:15;24.70;;;17.33;;
19149;SDS011;9707;49.158;8.632;2023-02-11T09:28:43;27.48;;;18.33;;
19149;SDS011;9707;49.158;8.632;2023-02-11T09:31:10;25.45;;;18.10;;
19149;SDS011;9707;49.158;8.632;2023-02-11T09:33:38;27.73;;;18.75;;
19149;SDS011;9707;49.158;8.632;2023-02-11T09:36:06;28.45;;;18.63;;
19149;SDS011;9707;49.158;8.632;2023-02-11T09:38:31;24.65;;;16.95;;
19149;SDS011;9707;49.158;8.632;2023-02-11T09:40:57;24.83;;;17.23;;
19149;SDS011;9707;49.158;8.632;2023-02-11T09:43:26;26.83;;;17.95;;
19149;SDS011;9707;49.158;8.632;2023-02-11T09:45:57;26.67;;;18.38;;
19149;SDS011;9707;49.158;8.632;2023-02-11T09:48:25;29.27;;;18.75;;
19149;SDS011;9707;49.158;8.632;2023-02-11T09:50:54;27.77;;;17.48;;
19149;SDS011;9707;49.158;8.632;2023-02-11T09:53:26;29.65;;;18.85;;
19149;SDS011;9707;49.158;8.632;2023-02-11T09:56:00;31.27;;;19.30;;
19149;SDS011;9707;49.158;8.632;2023-02-11T09:58:34;27.35;;;18.80;;
19149;SDS011;9707;49.158;8.632;2023-02-11T10:06:49;31.02;;;18.27;;
19149;SDS011;9707;49.158;8.632;2023-02-11T10:20:47;25.60;;;16.73;;
19149;SDS011;9707;49.158;8.632;2023-02-11T10:23:18;25.60;;;15.73;;
19149;SDS011;9707;49.158;8.632;2023-02-11T10:25:49;24.27;;;15.98;;
19149;SDS011;9707;49.158;8.632;2023-02-11T10:28:40;27.05;;;17.20;;
19149;SDS011;9707;49.158;8.632;2023-02-11T10:31:07;22.63;;;15.52;;
19149;SDS011;9707;49.158;8.632;2023-02-11T10:36:18;22.20;;;14.38;;
19149;SDS011;9707;49.158;8.632;2023-02-11T10:38:48;19.67;;;13.43;;
19149;SDS011;9707;49.158;8.632;2023-02-11T10:41:18;18.58;;;12.88;;
19149;SDS011;9707;49.158;8.632;2023-02-11T10:43:50;19.88;;;13.60;;
19149;SDS011;9707;49.158;8.632;2023-02-11T10:46:16;24.65;;;14.63;;
19149;SDS011;9707;49.158;8.632;2023-02-11T10:48:47;21.00;;;12.50;;
19149;SDS011;9707;49.158;8.632;2023-02-11T10:51:17;19.08;;;12.60;;
19149;SDS011;9707;49.158;8.632;2023-02-11T10:53:46;18.80;;;12.20;;
19149;SDS011;9707;49.158;8.632;2023-02-11T10:56:25;18.08;;;11.15;;
19149;SDS011;9707;49.158;8.632;2023-02-11T11:01:41;19.20;;;12.70;;
19149;SDS011;9707;49.158;8.632;2023-02-11T11:04:34;17.48;;;12.55;;
19149;SDS011;9707;49.158;8.632;2023-02-11T11:18:28;18.30;;;12.00;;
19149;SDS011;9707;49.158;8.632;2023-02-11T11:20:59;17.70;;;11.60;;
19149;SDS011;9707;49.158;8.632;2023-02-11T11:23:27;18.98;;;11.57;;
19149;SDS011;9707;49.158;8.632;2023-02-11T11:25:59;15.70;;;11.85;;
19149;SDS011;9707;49.158;8.632;2023-02-11T11:28:28;16.25;;;11.07;;
19149;SDS011;9707;49.158;8.632;2023-02-11T11:30:55;16.33;;;11.25;;
19149;SDS011;9707;49.158;8.632;2023-02-11T11:33:27;16.02;;;10.93;;
19149;SDS011;9707;49.158;8.632;2023-02-11T11:36:29;16.30;;;11.10;;
19149;SDS011;9707;49.158;8.632;2023-02-11T11:38:50;16.85;;;10.85;;
19149;SDS011;9707;49.158;8.632;2023-02-11T11:46:46;17.92;;;11.90;;
19149;SDS011;9707;49.158;8.632;2023-02-11T11:51:44;15.48;;;10.90;;
19149;SDS011;9707;49.158;8.632;2023-02-11T11:54:18;17.27;;;11.40;;
19149;SDS011;9707;49.158;8.632;2023-02-11T11:56:55;16.45;;;10.38;;
19149;SDS011;9707;49.158;8.632;2023-02-11T11:59:24;15.20;;;10.60;;
19149;SDS011;9707;49.158;8.632;2023-02-11T12:01:58;15.82;;;10.93;;
19149;SDS011;9707;49.158;8.632;2023-02-11T12:04:47;15.60;;;10.88;;
19149;SDS011;9707;49.158;8.632;2023-02-11T12:07:41;15.98;;;10.43;;
19149;SDS011;9707;49.158;8.632;2023-02-11T12:23:53;18.05;;;12.25;;
19149;SDS011;9707;49.158;8.632;2023-02-11T12:32:09;17.45;;;12.35;;
19149;SDS011;9707;49.158;8.632;2023-02-11T12:40:44;19.77;;;13.27;;
19149;SDS011;9707;49.158;8.632;2023-02-11T12:52:03;16.33;;;11.77;;
19149;SDS011;9707;49.158;8.632;2023-02-11T12:54:52;19.00;;;13.07;;
19149;SDS011;9707;49.158;8.632;2023-02-11T12:57:22;20.77;;;12.70;;
19149;SDS011;9707;49.158;8.632;2023-02-11T13:11:06;17.13;;;12.13;;
19149;SDS011;9707;49.158;8.632;2023-02-11T13:19:18;21.75;;;12.60;;
19149;SDS011;9707;49.158;8.632;2023-02-11T13:27:00;21.60;;;12.77;;
19149;SDS011;9707;49.158;8.632;2023-02-11T13:35:27;16.42;;;11.80;;
19149;SDS011;9707;49.158;8.632;2023-02-11T13:37:55;17.50;;;11.32;;
19149;SDS011;9707;49.158;8.632;2023-02-11T13:42:57;17.20;;;11.80;;
19149;SDS011;9707;49.158;8.632;2023-02-11T13:48:25;19.27;;;13.52;;
19149;SDS011;9707;49.158;8.632;2023-02-11T13:50:58;16.33;;;13.05;;
19149;SDS011;9707;49.158;8.632;2023-02-11T13:53:26;18.08;;;12.55;;
19149;SDS011;9707;49.158;8.632;2023-02-11T13:56:06;21.85;;;12.63;;
19149;SDS011;9707;49.158;8.632;2023-02-11T13:58:36;18.45;;;13.10;;
19149;SDS011;9707;49.158;8.632;2023-02-11T14:01:11;19.55;;;13.18;;
19149;SDS011;9707;49.158;8.632;2023-02-11T14:04:36;16.88;;;12.35;;
19149;SDS011;9707;49.158;8.632;2023-02-11T14:07:40;15.18;;;11.52;;
19149;SDS011;9707;49.158;8.632;2023-02-11T14:10:50;15.93;;;12.75;;
19149;SDS011;9707;49.158;8.632;2023-02-11T14:13:25;16.17;;;11.60;;
19149;SDS011;9707;49.158;8.632;2023-02-11T14:16:09;16.58;;;11.80;;
19149;SDS011;9707;49.158;8.632;2023-02-11T14:23:51;16.70;;;12.32;;
19149;SDS011;9707;49.158;8.632;2023-02-11T14:28:46;18.83;;;13.05;;
19149;SDS011;9707;49.158;8.632;2023-02-11T14:31:32;18.77;;;13.02;;
19149;SDS011;9707;49.158;8.632;2023-02-11T14:34:05;17.17;;;11.43;;
19149;SDS011;9707;49.158;8.632;2023-02-11T14:42:15;17.95;;;12.43;;
19149;SDS011;9707;49.158;8.632;2023-02-11T14:44:44;17.00;;;12.43;;
19149;SDS011;9707;49.158;8.632;2023-02-11T14:47:18;17.00;;;11.90;;
19149;SDS011;9707;49.158;8.632;2023-02-11T14:49:47;16.45;;;10.90;;
19149;SDS011;9707;49.158;8.632;2023-02-11T14:52:33;16.33;;;11.68;;
19149;SDS011;9707;49.158;8.632;2023-02-11T14:55:08;18.65;;;11.90;;
19149;SDS011;9707;49.158;8.632;2023-02-11T14:57:37;15.88;;;11.85;;
19149;SDS011;9707;49.158;8.632;2023-02-11T15:00:04;18.25;;;12.60;;
19149;SDS011;9707;49.158;8.632;2023-02-11T15:02:40;19.23;;;12.52;;
19149;SDS011;9707;49.158;8.632;2023-02-11T15:07:54;19.30;;;11.80;;
19149;SDS011;9707;49.158;8.632;2023-02-11T15:10:32;15.45;;;11.77;;
19149;SDS011;9707;49.158;8.632;2023-02-11T15:13:01;17.33;;;11.55;;
19149;SDS011;9707;49.158;8.632;2023-02-11T15:15:30;17.52;;;12.38;;
19149;SDS011;9707;49.158;8.632;2023-02-11T15:17:57;17.13;;;12.00;;
19149;SDS011;9707;49.158;8.632;2023-02-11T15:20:26;17.33;;;12.30;;
19149;SDS011;9707;49.158;8.632;2023-02-11T15:22:55;28.05;;;17.27;;
19149;SDS011;9707;49.158;8.632;2023-02-11T15:25:25;18.10;;;14.10;;
19149;SDS011;9707;49.158;8.632;2023-02-11T15:27:52;23.33;;;16.13;;
19149;SDS011;9707;49.158;8.632;2023-02-11T15:30:23;18.45;;;13.35;;
19149;SDS011;9707;49.158;8.632;2023-02-11T15:32:57;18.67;;;12.98;;
19149;SDS011;9707;49.158;8.632;2023-02-11T15:35:36;19.00;;;12.30;;
19149;SDS011;9707;49.158;8.632;2023-02-11T15:38:04;18.13;;;12.82;;
19149;SDS011;9707;49.158;8.632;2023-02-11T15:40:31;16.45;;;12.63;;
19149;SDS011;9707;49.158;8.632;2023-02-11T15:45:29;17.33;;;12.32;;
19149;SDS011;9707;49.158;8.632;2023-02-11T15:47:56;18.13;;;12.55;;
19149;SDS011;9707;49.158;8.632;2023-02-11T15:50:27;18.70;;;14.32;;
19149;SDS011;9707;49.158;8.632;2023-02-11T15:52:56;19.73;;;13.45;;
19149;SDS011;9707;49.158;8.632;2023-02-11T15:55:24;19.38;;;13.02;;
19149;SDS011;9707;49.158;8.632;2023-02-11T15:57:52;19.05;;;13.82;;
19149;SDS011;9707;49.158;8.632;2023-02-11T16:00:21;19.38;;;12.80;;
19149;SDS011;9707;49.158;8.632;2023-02-11T16:02:48;18.83;;;13.52;;
19149;SDS011;9707;49.158;8.632;2023-02-11T16:08:00;40.08;;;23.55;;
19149;SDS011;9707;49.158;8.632;2023-02-11T16:10:52;22.63;;;14.57;;
19149;SDS011;9707;49.158;8.632;2023-02-11T16:13:22;17.05;;;10.98;;
19149;SDS011;9707;49.158;8.632;2023-02-11T16:15:55;18.73;;;11.85;;
19149;SDS011;9707;49.158;8.632;2023-02-11T16:18:26;19.00;;;12.80;;
19149;SDS011;9707;49.158;8.632;2023-02-11T16:21:02;23.08;;;12.98;;
19149;SDS011;9707;49.158;8.632;2023-02-11T16:23:34;17.63;;;12.68;;
19149;SDS011;9707;49.158;8.632;2023-02-11T16:26:24;20.02;;;13.48;;
19149;SDS011;9707;49.158;8.632;2023-02-11T16:29:02;21.02;;;13.30;;
19149;SDS011;9707;49.158;8.632;2023-02-11T16:31:33;18.60;;;12.85;;
19149;SDS011;9707;49.158;8.632;2023-02-11T16:34:00;18.15;;;13.68;;
19149;SDS011;9707;49.158;8.632;2023-02-11T16:36:25;18.60;;;12.90;;
19149;SDS011;9707;49.158;8.632;2023-02-11T16:38:50;19.65;;;13.43;;
19149;SDS011;9707;49.158;8.632;2023-02-11T16:41:15;19.90;;;13.85;;
19149;SDS011;9707;49.158;8.632;2023-02-11T16:43:41;19.58;;;12.93;;
19149;SDS011;9707;49.158;8.632;2023-02-11T16:46:06;19.23;;;13.48;;
19149;SDS011;9707;49.158;8.632;2023-02-11T16:48:33;18.75;;;13.45;;
19149;SDS011;9707;49.158;8.632;2023-02-11T16:50:58;19.17;;;13.10;;
19149;SDS011;9707;49.158;8.632;2023-02-11T16:53:24;20.10;;;13.90;;
19149;SDS011;9707;49.158;8.632;2023-02-11T16:55:50;19.42;;;12.68;;
19149;SDS011;9707;49.158;8.632;2023-02-11T16:58:16;21.67;;;14.18;;
19149;SDS011;9707;49.158;8.632;2023-02-11T17:00:44;17.02;;;12.65;;
19149;SDS011;9707;49.158;8.632;2023-02-11T17:03:15;17.58;;;12.95;;
19149;SDS011;9707;49.158;8.632;2023-02-11T17:05:45;18.60;;;12.32;;
19149;SDS011;9707;49.158;8.632;2023-02-11T17:08:10;20.05;;;13.32;;
19149;SDS011;9707;49.158;8.632;2023-02-11T17:10:36;20.95;;;14.60;;
19149;SDS011;9707;49.158;8.632;2023-02-11T17:13:02;19.33;;;13.68;;
19149;SDS011;9707;49.158;8.632;2023-02-11T17:15:28;23.35;;;12.70;;
19149;SDS011;9707;49.158;8.632;2023-02-11T17:17:54;18.63;;;12.65;;
19149;SDS011;9707;49.158;8.632;2023-02-11T17:20:19;19.80;;;13.02;;
19149;SDS011;9707;49.158;8.632;2023-02-11T17:22:45;16.85;;;12.77;;
19149;SDS011;9707;49.158;8.632;2023-02-11T17:25:10;17.65;;;13.15;;
19149;SDS011;9707;49.158;8.632;2023-02-11T17:27:35;20.33;;;12.77;;
19149;SDS011;9707;49.158;8.632;2023-02-11T17:30:01;22.17;;;16.13;;
19149;SDS011;9707;49.158;8.632;2023-02-11T17:32:27;23.30;;;15.95;;